Hauptseite
METAR-TAF:

METAR-TAF

Flughäfen :

Flughafen Harare International

Harare, Simbabwe

Breite: 17-55S, Länge: 031-08E, Höhe: 1479 m

Beobachtung

Neuester Wetterbericht von vor 4 Stunden und 19 Minuten, um 19:00 UTC
Wind 3 kt aus Ost
Temperatur 13°C
Luftfeuchtigkeit 67%
Luftdruck 1026 hPa
Sichtweite 10 km oder mehr
keine Wolken unter 1500 m und keine Kumulonimbus oder Gewitterwolken

METAR: FVHA 231900Z 09003KT CAVOK 13/07 Q1026 NOSIG

Zeit: 01:19 (23:19 UTC)

Prognose

Neuester Wetterbericht von vor 7 Stunden und 19 Minuten, um 16:00 UTC
Gültige Prognose vom 23 um 18 UTC bis 24 um 24 UTC
Wind 6 kt aus Süd/Südost
Sichtweite 10 km oder mehr
keine Wolken unter 1500 m und keine Kumulonimbus oder Gewitterwolken

TAF: FVHA 231600Z 2318/2424 15006KT CAVOK

Wetterbeobachtungen und Prognosen von mehr als 4000 Flughäfen (METAR und TAF Bericht).

Die verfügbaren Stationen werden durch gelbe und rote Markierungen auf der Karte dargestellt.

Führen Sie die Maus auf sie, um den Namen der Station zu sehen.

Darauf klicken, um die Beobachtung von Wetterbeobachtungen und Prognosen zu sehen.

Um die Karte zu ändern : klicken Sie auf den grünen Tasten mit einem schwarzen Kreuz Zum Vergrößern, auf den grünen Button mit einem Gedankenstrich zu verkleinern, oder auf die grünen Pfeile für benachbarte Karten.


METAR-TAF: